sensor_id;sensor_type;location;lat;lon;timestamp;P1;durP1;ratioP1;P2;durP2;ratioP2
21769;SDS011;11046;49.558;8.674;2022-10-15T00:01:20;3.85;;;1.13;;
21769;SDS011;11046;49.558;8.674;2022-10-15T00:04:21;1.10;;;1.00;;
21769;SDS011;11046;49.558;8.674;2022-10-15T00:07:21;1.98;;;1.27;;
21769;SDS011;11046;49.558;8.674;2022-10-15T00:10:22;2.83;;;1.50;;
21769;SDS011;11046;49.558;8.674;2022-10-15T00:13:23;6.20;;;1.27;;
21769;SDS011;11046;49.558;8.674;2022-10-15T00:16:24;2.30;;;1.10;;
21769;SDS011;11046;49.558;8.674;2022-10-15T00:19:26;1.17;;;0.98;;
21769;SDS011;11046;49.558;8.674;2022-10-15T00:22:27;1.20;;;1.10;;
21769;SDS011;11046;49.558;8.674;2022-10-15T00:25:28;1.20;;;1.10;;
21769;SDS011;11046;49.558;8.674;2022-10-15T00:28:28;1.63;;;1.13;;
21769;SDS011;11046;49.558;8.674;2022-10-15T00:31:30;1.67;;;1.20;;
21769;SDS011;11046;49.558;8.674;2022-10-15T00:34:31;2.33;;;1.52;;
21769;SDS011;11046;49.558;8.674;2022-10-15T00:37:32;2.20;;;1.33;;
21769;SDS011;11046;49.558;8.674;2022-10-15T00:40:33;3.10;;;1.00;;
21769;SDS011;11046;49.558;8.674;2022-10-15T00:43:40;2.15;;;1.00;;
21769;SDS011;11046;49.558;8.674;2022-10-15T00:46:41;5.05;;;1.10;;
21769;SDS011;11046;49.558;8.674;2022-10-15T00:49:43;1.43;;;1.00;;
21769;SDS011;11046;49.558;8.674;2022-10-15T00:52:58;2.00;;;1.50;;
21769;SDS011;11046;49.558;8.674;2022-10-15T00:56:05;1.20;;;1.10;;
21769;SDS011;11046;49.558;8.674;2022-10-15T00:59:06;3.75;;;1.50;;
21769;SDS011;11046;49.558;8.674;2022-10-15T01:02:08;3.63;;;1.23;;
21769;SDS011;11046;49.558;8.674;2022-10-15T01:05:10;1.75;;;1.02;;
21769;SDS011;11046;49.558;8.674;2022-10-15T01:08:13;1.60;;;1.05;;
21769;SDS011;11046;49.558;8.674;2022-10-15T01:11:28;1.25;;;1.10;;
21769;SDS011;11046;49.558;8.674;2022-10-15T01:14:39;3.78;;;1.10;;
21769;SDS011;11046;49.558;8.674;2022-10-15T01:18:07;3.10;;;1.20;;
21769;SDS011;11046;49.558;8.674;2022-10-15T01:21:19;2.55;;;1.70;;
21769;SDS011;11046;49.558;8.674;2022-10-15T01:24:45;3.83;;;1.35;;
21769;SDS011;11046;49.558;8.674;2022-10-15T01:28:06;1.90;;;1.10;;
21769;SDS011;11046;49.558;8.674;2022-10-15T01:31:44;1.40;;;1.20;;
21769;SDS011;11046;49.558;8.674;2022-10-15T01:41:51;3.85;;;1.58;;
21769;SDS011;11046;49.558;8.674;2022-10-15T01:45:02;2.10;;;1.40;;
21769;SDS011;11046;49.558;8.674;2022-10-15T01:48:38;2.05;;;1.48;;
21769;SDS011;11046;49.558;8.674;2022-10-15T01:51:41;3.85;;;1.52;;
21769;SDS011;11046;49.558;8.674;2022-10-15T01:54:43;3.75;;;1.65;;
21769;SDS011;11046;49.558;8.674;2022-10-15T01:57:46;3.97;;;1.90;;
21769;SDS011;11046;49.558;8.674;2022-10-15T02:00:48;2.00;;;1.80;;
21769;SDS011;11046;49.558;8.674;2022-10-15T02:03:51;3.65;;;1.80;;
21769;SDS011;11046;49.558;8.674;2022-10-15T02:06:54;2.80;;;2.15;;
21769;SDS011;11046;49.558;8.674;2022-10-15T02:13:15;2.97;;;2.13;;
21769;SDS011;11046;49.558;8.674;2022-10-15T02:20:14;5.63;;;2.30;;
21769;SDS011;11046;49.558;8.674;2022-10-15T02:23:24;2.88;;;2.25;;
21769;SDS011;11046;49.558;8.674;2022-10-15T02:26:37;3.53;;;2.20;;
21769;SDS011;11046;49.558;8.674;2022-10-15T02:29:41;2.97;;;1.98;;
21769;SDS011;11046;49.558;8.674;2022-10-15T02:32:45;3.53;;;2.63;;
21769;SDS011;11046;49.558;8.674;2022-10-15T02:35:54;3.67;;;2.40;;
21769;SDS011;11046;49.558;8.674;2022-10-15T02:38:57;4.25;;;2.35;;
21769;SDS011;11046;49.558;8.674;2022-10-15T02:42:00;3.53;;;2.00;;
21769;SDS011;11046;49.558;8.674;2022-10-15T02:45:01;5.50;;;1.93;;
21769;SDS011;11046;49.558;8.674;2022-10-15T02:48:02;3.17;;;1.92;;
21769;SDS011;11046;49.558;8.674;2022-10-15T02:51:03;3.17;;;2.15;;
21769;SDS011;11046;49.558;8.674;2022-10-15T02:54:05;4.63;;;2.00;;
21769;SDS011;11046;49.558;8.674;2022-10-15T02:57:07;4.33;;;2.03;;
21769;SDS011;11046;49.558;8.674;2022-10-15T03:00:08;4.35;;;2.22;;
21769;SDS011;11046;49.558;8.674;2022-10-15T03:03:10;2.60;;;2.10;;
21769;SDS011;11046;49.558;8.674;2022-10-15T03:06:11;3.42;;;1.70;;
21769;SDS011;11046;49.558;8.674;2022-10-15T03:09:12;2.88;;;2.08;;
21769;SDS011;11046;49.558;8.674;2022-10-15T03:12:13;3.70;;;2.30;;
21769;SDS011;11046;49.558;8.674;2022-10-15T03:15:13;2.67;;;1.85;;
21769;SDS011;11046;49.558;8.674;2022-10-15T03:18:17;3.05;;;1.90;;
21769;SDS011;11046;49.558;8.674;2022-10-15T03:21:18;5.20;;;2.25;;
21769;SDS011;11046;49.558;8.674;2022-10-15T03:24:19;2.42;;;1.92;;
21769;SDS011;11046;49.558;8.674;2022-10-15T03:27:20;2.75;;;1.92;;
21769;SDS011;11046;49.558;8.674;2022-10-15T03:30:21;2.97;;;2.10;;
21769;SDS011;11046;49.558;8.674;2022-10-15T03:33:24;3.40;;;1.88;;
21769;SDS011;11046;49.558;8.674;2022-10-15T03:36:26;1.95;;;1.73;;
21769;SDS011;11046;49.558;8.674;2022-10-15T03:39:27;2.90;;;1.77;;
21769;SDS011;11046;49.558;8.674;2022-10-15T03:42:31;2.30;;;1.88;;
21769;SDS011;11046;49.558;8.674;2022-10-15T03:45:34;3.63;;;2.10;;
21769;SDS011;11046;49.558;8.674;2022-10-15T03:48:49;4.72;;;1.75;;
